Buckeye Village, Ohio
Current Conditions -  °F | °C
As of 10:52 PM on Wednesday 28 Jan 2015 (Local Time) from KMFD Reporting Station
Clear Clear  
Wind Chill:   Ceiling: Unl
Heat Index: 23°   Visibility: 10mi
Dew Point: 13°   Wind: 17mph
Humidity: 65%   Direction: 160°SSE
Pressure: 30.17"   Gusts: NA
Location:  41.0654°N, 82.876°W
Report Text: KMFD 290352Z AUTO 16015KT 10SM CLR M05/M11 A3017 RMK AO2 SLP238 T10501106
Loading
Personal Weather Stations






























Interactive Weather Map New forecast layout! Learn more

10-Day Weather Forecast

Advertisements
Track Severe Weather on mobile